sensor_id;sensor_type;location;lat;lon;timestamp;pressure;altitude;pressure_sealevel;temperature;humidity
67015;BME280;1033;52.560;13.374;2023-03-25T00:00:49;99771.91;;;9.25;85.33
67015;BME280;1033;52.560;13.374;2023-03-25T00:03:19;99771.84;;;9.31;85.24
67015;BME280;1033;52.560;13.374;2023-03-25T00:05:50;99776.88;;;9.28;85.89
67015;BME280;1033;52.560;13.374;2023-03-25T00:08:19;99770.28;;;9.24;86.28
67015;BME280;1033;52.560;13.374;2023-03-25T00:10:51;99776.09;;;9.21;86.78
67015;BME280;1033;52.560;13.374;2023-03-25T00:13:21;99774.34;;;9.08;87.22
67015;BME280;1033;52.560;13.374;2023-03-25T00:15:52;99763.81;;;9.00;88.25
67015;BME280;1033;52.560;13.374;2023-03-25T00:18:26;99765.56;;;9.12;88.26
67015;BME280;1033;52.560;13.374;2023-03-25T00:21:01;99762.19;;;8.92;88.60
67015;BME280;1033;52.560;13.374;2023-03-25T00:23:30;99756.75;;;8.99;88.76
67015;BME280;1033;52.560;13.374;2023-03-25T00:25:59;99750.19;;;8.88;89.13
67015;BME280;1033;52.560;13.374;2023-03-25T00:28:31;99753.06;;;8.93;89.74
67015;BME280;1033;52.560;13.374;2023-03-25T00:31:03;99747.00;;;8.98;89.36
67015;BME280;1033;52.560;13.374;2023-03-25T00:33:33;99747.63;;;9.00;89.74
67015;BME280;1033;52.560;13.374;2023-03-25T00:36:04;99747.66;;;8.93;89.86
67015;BME280;1033;52.560;13.374;2023-03-25T00:38:35;99749.56;;;8.86;90.31
67015;BME280;1033;52.560;13.374;2023-03-25T00:41:12;99759.16;;;8.82;90.73
67015;BME280;1033;52.560;13.374;2023-03-25T00:43:44;99758.94;;;8.84;90.78
67015;BME280;1033;52.560;13.374;2023-03-25T00:46:15;99764.38;;;8.77;91.16
67015;BME280;1033;52.560;13.374;2023-03-25T00:48:44;99760.38;;;8.86;91.13
67015;BME280;1033;52.560;13.374;2023-03-25T00:51:13;99773.94;;;8.73;91.38
67015;BME280;1033;52.560;13.374;2023-03-25T00:53:51;99766.41;;;8.82;91.37
67015;BME280;1033;52.560;13.374;2023-03-25T00:56:21;99771.44;;;8.78;91.47
67015;BME280;1033;52.560;13.374;2023-03-25T00:58:50;99766.47;;;8.75;91.88
67015;BME280;1033;52.560;13.374;2023-03-25T01:01:23;99768.47;;;8.86;91.81
67015;BME280;1033;52.560;13.374;2023-03-25T01:03:55;99776.81;;;8.78;91.64
67015;BME280;1033;52.560;13.374;2023-03-25T01:06:27;99776.81;;;8.78;91.71
67015;BME280;1033;52.560;13.374;2023-03-25T01:08:57;99771.41;;;8.85;91.75
67015;BME280;1033;52.560;13.374;2023-03-25T01:11:28;99766.03;;;8.78;91.65
67015;BME280;1033;52.560;13.374;2023-03-25T01:14:02;99768.94;;;8.77;91.89
67015;BME280;1033;52.560;13.374;2023-03-25T01:16:34;99768.16;;;8.76;92.54
67015;BME280;1033;52.560;13.374;2023-03-25T01:19:03;99773.38;;;8.71;92.48
67015;BME280;1033;52.560;13.374;2023-03-25T01:21:32;99759.69;;;8.66;92.67
67015;BME280;1033;52.560;13.374;2023-03-25T01:24:03;99760.56;;;8.60;92.77
67015;BME280;1033;52.560;13.374;2023-03-25T01:26:33;99750.44;;;8.49;93.71
67015;BME280;1033;52.560;13.374;2023-03-25T01:29:04;99757.78;;;8.73;93.07
67015;BME280;1033;52.560;13.374;2023-03-25T01:31:34;99757.78;;;8.73;92.48
67015;BME280;1033;52.560;13.374;2023-03-25T01:34:04;99748.66;;;8.67;92.78
67015;BME280;1033;52.560;13.374;2023-03-25T01:36:34;99745.78;;;8.69;92.89
67015;BME280;1033;52.560;13.374;2023-03-25T01:39:04;99741.72;;;8.53;92.95
67015;BME280;1033;52.560;13.374;2023-03-25T01:41:35;99741.69;;;8.60;93.25
67015;BME280;1033;52.560;13.374;2023-03-25T01:47:25;99728.47;;;8.52;93.30
67015;BME280;1033;52.560;13.374;2023-03-25T01:49:55;99727.84;;;8.50;93.52
67015;BME280;1033;52.560;13.374;2023-03-25T01:52:25;99734.28;;;8.49;93.69
67015;BME280;1033;52.560;13.374;2023-03-25T01:54:57;99723.13;;;8.39;93.95
67015;BME280;1033;52.560;13.374;2023-03-25T01:57:27;99717.06;;;8.50;93.38
67015;BME280;1033;52.560;13.374;2023-03-25T01:59:58;99724.72;;;8.53;93.60
67015;BME280;1033;52.560;13.374;2023-03-25T02:02:28;99722.72;;;8.42;93.83
67015;BME280;1033;52.560;13.374;2023-03-25T02:05:11;99725.16;;;8.50;93.87
67015;BME280;1033;52.560;13.374;2023-03-25T02:07:46;99715.00;;;8.52;93.16
67015;BME280;1033;52.560;13.374;2023-03-25T02:10:17;99711.56;;;8.63;93.17
67015;BME280;1033;52.560;13.374;2023-03-25T02:12:47;99711.75;;;8.68;92.82
67015;BME280;1033;52.560;13.374;2023-03-25T02:15:18;99709.22;;;8.73;91.92
67015;BME280;1033;52.560;13.374;2023-03-25T02:18:09;99702.63;;;8.69;92.13
67015;BME280;1033;52.560;13.374;2023-03-25T02:21:02;99701.19;;;8.91;91.54
67015;BME280;1033;52.560;13.374;2023-03-25T02:23:59;99695.38;;;8.94;90.76
67015;BME280;1033;52.560;13.374;2023-03-25T02:26:58;99699.88;;;9.00;90.69
67015;BME280;1033;52.560;13.374;2023-03-25T02:32:53;99699.81;;;9.07;90.21
67015;BME280;1033;52.560;13.374;2023-03-25T02:35:31;99686.94;;;9.09;90.07
67015;BME280;1033;52.560;13.374;2023-03-25T02:38:18;99684.16;;;9.15;89.74
67015;BME280;1033;52.560;13.374;2023-03-25T02:40:55;99685.00;;;9.16;90.20
67015;BME280;1033;52.560;13.374;2023-03-25T02:43:29;99678.00;;;9.08;90.43
67015;BME280;1033;52.560;13.374;2023-03-25T02:46:02;99682.69;;;9.20;90.00
67015;BME280;1033;52.560;13.374;2023-03-25T02:48:38;99673.34;;;9.15;89.89
67015;BME280;1033;52.560;13.374;2023-03-25T02:51:12;99667.09;;;9.22;89.39
67015;BME280;1033;52.560;13.374;2023-03-25T02:53:46;99671.28;;;9.18;89.47
67015;BME280;1033;52.560;13.374;2023-03-25T02:56:19;99667.38;;;9.13;89.72
67015;BME280;1033;52.560;13.374;2023-03-25T02:58:52;99661.81;;;9.08;89.66
67015;BME280;1033;52.560;13.374;2023-03-25T03:01:23;99662.97;;;9.19;89.55
67015;BME280;1033;52.560;13.374;2023-03-25T03:03:55;99668.13;;;9.21;89.41
67015;BME280;1033;52.560;13.374;2023-03-25T03:06:24;99654.56;;;9.27;88.77
67015;BME280;1033;52.560;13.374;2023-03-25T03:09:17;99665.31;;;9.34;88.49
67015;BME280;1033;52.560;13.374;2023-03-25T03:12:03;99655.31;;;9.16;89.07
67015;BME280;1033;52.560;13.374;2023-03-25T03:14:47;99667.41;;;9.32;88.79
67015;BME280;1033;52.560;13.374;2023-03-25T03:17:26;99660.97;;;9.33;88.61
67015;BME280;1033;52.560;13.374;2023-03-25T03:20:00;99670.09;;;9.50;87.57
67015;BME280;1033;52.560;13.374;2023-03-25T03:22:40;99668.16;;;9.57;87.88
67015;BME280;1033;52.560;13.374;2023-03-25T03:25:19;99676.13;;;9.52;88.84
67015;BME280;1033;52.560;13.374;2023-03-25T03:27:54;99688.78;;;9.51;90.28
67015;BME280;1033;52.560;13.374;2023-03-25T03:30:28;99676.25;;;9.39;90.87
67015;BME280;1033;52.560;13.374;2023-03-25T03:33:06;99678.34;;;9.37;92.29
67015;BME280;1033;52.560;13.374;2023-03-25T03:35:43;99680.28;;;9.30;93.10
67015;BME280;1033;52.560;13.374;2023-03-25T03:38:19;99672.59;;;9.33;93.86
67015;BME280;1033;52.560;13.374;2023-03-25T03:40:54;99676.53;;;9.31;94.58
67015;BME280;1033;52.560;13.374;2023-03-25T03:43:29;99681.34;;;9.29;95.65
67015;BME280;1033;52.560;13.374;2023-03-25T03:46:03;99680.00;;;9.20;95.73
67015;BME280;1033;52.560;13.374;2023-03-25T03:48:39;99681.41;;;9.22;96.34
67015;BME280;1033;52.560;13.374;2023-03-25T03:51:18;99680.22;;;9.18;97.17
67015;BME280;1033;52.560;13.374;2023-03-25T03:53:51;99688.09;;;9.20;97.14
67015;BME280;1033;52.560;13.374;2023-03-25T03:56:29;99686.44;;;9.19;98.42
67015;BME280;1033;52.560;13.374;2023-03-25T03:59:07;99673.59;;;9.14;99.50
67015;BME280;1033;52.560;13.374;2023-03-25T04:01:41;99665.09;;;9.10;100.00
67015;BME280;1033;52.560;13.374;2023-03-25T04:04:14;99663.25;;;9.11;100.00
67015;BME280;1033;52.560;13.374;2023-03-25T04:06:48;99660.78;;;9.09;100.00
67015;BME280;1033;52.560;13.374;2023-03-25T04:09:26;99663.25;;;9.11;100.00
67015;BME280;1033;52.560;13.374;2023-03-25T04:12:06;99660.78;;;9.09;100.00
67015;BME280;1033;52.560;13.374;2023-03-25T04:14:37;99667.94;;;8.97;100.00
67015;BME280;1033;52.560;13.374;2023-03-25T04:17:06;99668.72;;;9.04;100.00
67015;BME280;1033;52.560;13.374;2023-03-25T04:19:36;99662.66;;;9.09;100.00
67015;BME280;1033;52.560;13.374;2023-03-25T04:22:06;99669.63;;;9.16;100.00
67015;BME280;1033;52.560;13.374;2023-03-25T04:24:35;99672.75;;;8.95;100.00
67015;BME280;1033;52.560;13.374;2023-03-25T04:27:09;99675.16;;;9.03;100.00
67015;BME280;1033;52.560;13.374;2023-03-25T04:29:40;99669.31;;;9.06;100.00
67015;BME280;1033;52.560;13.374;2023-03-25T04:32:11;99679.72;;;9.03;100.00
67015;BME280;1033;52.560;13.374;2023-03-25T04:34:40;99673.97;;;9.18;100.00
67015;BME280;1033;52.560;13.374;2023-03-25T04:37:09;99669.41;;;9.18;100.00
67015;BME280;1033;52.560;13.374;2023-03-25T04:39:40;99669.47;;;9.11;100.00
67015;BME280;1033;52.560;13.374;2023-03-25T04:42:10;99672.25;;;9.05;100.00
67015;BME280;1033;52.560;13.374;2023-03-25T04:44:40;99666.44;;;9.01;100.00
67015;BME280;1033;52.560;13.374;2023-03-25T04:47:12;99674.22;;;8.91;100.00
67015;BME280;1033;52.560;13.374;2023-03-25T04:49:42;99677.16;;;8.90;100.00
67015;BME280;1033;52.560;13.374;2023-03-25T04:52:12;99670.22;;;8.76;100.00
67015;BME280;1033;52.560;13.374;2023-03-25T04:54:43;99669.31;;;8.82;100.00
67015;BME280;1033;52.560;13.374;2023-03-25T04:57:14;99667.72;;;8.74;100.00
67015;BME280;1033;52.560;13.374;2023-03-25T04:59:43;99671.75;;;8.65;100.00
67015;BME280;1033;52.560;13.374;2023-03-25T05:02:13;99673.34;;;8.72;100.00
67015;BME280;1033;52.560;13.374;2023-03-25T05:04:45;99667.44;;;8.57;100.00
67015;BME280;1033;52.560;13.374;2023-03-25T05:07:14;99667.22;;;8.59;100.00
67015;BME280;1033;52.560;13.374;2023-03-25T05:09:45;99669.81;;;8.72;100.00
67015;BME280;1033;52.560;13.374;2023-03-25T05:12:16;99662.34;;;8.74;100.00
67015;BME280;1033;52.560;13.374;2023-03-25T05:14:45;99673.47;;;8.84;100.00
67015;BME280;1033;52.560;13.374;2023-03-25T05:17:14;99669.44;;;8.93;98.99
67015;BME280;1033;52.560;13.374;2023-03-25T05:19:43;99662.53;;;8.97;98.60
67015;BME280;1033;52.560;13.374;2023-03-25T05:22:12;99669.44;;;8.93;98.68
67015;BME280;1033;52.560;13.374;2023-03-25T05:24:41;99662.53;;;8.97;98.65
67015;BME280;1033;52.560;13.374;2023-03-25T05:27:12;99658.84;;;8.92;98.16
67015;BME280;1033;52.560;13.374;2023-03-25T05:29:42;99665.25;;;8.97;97.94
67015;BME280;1033;52.560;13.374;2023-03-25T05:32:11;99667.50;;;9.00;97.80
67015;BME280;1033;52.560;13.374;2023-03-25T05:34:44;99656.84;;;9.05;97.31
67015;BME280;1033;52.560;13.374;2023-03-25T05:41:18;99655.25;;;9.23;95.19
67015;BME280;1033;52.560;13.374;2023-03-25T05:44:32;99670.41;;;9.42;94.63
67015;BME280;1033;52.560;13.374;2023-03-25T05:48:06;99672.50;;;9.76;91.88
67015;BME280;1033;52.560;13.374;2023-03-25T05:51:14;99672.94;;;9.91;91.45
67015;BME280;1033;52.560;13.374;2023-03-25T05:54:06;99677.19;;;9.99;89.29
67015;BME280;1033;52.560;13.374;2023-03-25T05:56:55;99686.88;;;9.88;89.81
67015;BME280;1033;52.560;13.374;2023-03-25T06:00:03;99685.13;;;9.82;89.83
67015;BME280;1033;52.560;13.374;2023-03-25T06:03:14;99686.22;;;9.75;90.14
67015;BME280;1033;52.560;13.374;2023-03-25T06:09:05;99680.31;;;9.66;89.37
67015;BME280;1033;52.560;13.374;2023-03-25T06:11:48;99692.16;;;9.83;88.76
67015;BME280;1033;52.560;13.374;2023-03-25T06:14:37;99688.75;;;9.88;86.91
67015;BME280;1033;52.560;13.374;2023-03-25T06:18:15;99706.47;;;9.84;85.12
67015;BME280;1033;52.560;13.374;2023-03-25T06:21:21;99703.63;;;9.79;86.25
67015;BME280;1033;52.560;13.374;2023-03-25T06:24:09;99697.69;;;9.88;86.46
67015;BME280;1033;52.560;13.374;2023-03-25T06:27:11;99712.50;;;9.86;85.54
67015;BME280;1033;52.560;13.374;2023-03-25T06:29:49;99701.34;;;9.82;86.33
67015;BME280;1033;52.560;13.374;2023-03-25T06:32:21;99708.50;;;9.88;85.13
67015;BME280;1033;52.560;13.374;2023-03-25T06:35:09;99706.47;;;9.84;85.66
67015;BME280;1033;52.560;13.374;2023-03-25T06:37:43;99717.16;;;9.97;84.97
67015;BME280;1033;52.560;13.374;2023-03-25T06:41:31;99713.38;;;9.98;84.23
67015;BME280;1033;52.560;13.374;2023-03-25T06:44:31;99706.09;;;10.17;83.85
67015;BME280;1033;52.560;13.374;2023-03-25T06:47:27;99702.97;;;10.20;82.40
67015;BME280;1033;52.560;13.374;2023-03-25T06:49:56;99699.63;;;10.36;82.39
67015;BME280;1033;52.560;13.374;2023-03-25T06:52:31;99701.38;;;10.42;81.42
67015;BME280;1033;52.560;13.374;2023-03-25T06:55:19;99700.81;;;10.40;81.04
67015;BME280;1033;52.560;13.374;2023-03-25T06:58:04;99708.13;;;10.51;81.36
67015;BME280;1033;52.560;13.374;2023-03-25T07:00:54;99718.13;;;10.21;81.75
67015;BME280;1033;52.560;13.374;2023-03-25T07:03:39;99698.44;;;10.14;82.67
67015;BME280;1033;52.560;13.374;2023-03-25T07:09:42;99710.44;;;10.36;81.98
67015;BME280;1033;52.560;13.374;2023-03-25T07:12:14;99712.44;;;10.40;81.66
67015;BME280;1033;52.560;13.374;2023-03-25T07:14:50;99719.75;;;10.52;80.91
67015;BME280;1033;52.560;13.374;2023-03-25T07:18:09;99711.34;;;10.71;80.74
67015;BME280;1033;52.560;13.374;2023-03-25T07:21:49;99708.81;;;10.88;78.57
67015;BME280;1033;52.560;13.374;2023-03-25T07:24:51;99722.56;;;10.86;78.25
67015;BME280;1033;52.560;13.374;2023-03-25T07:27:24;99719.41;;;11.01;78.46
67015;BME280;1033;52.560;13.374;2023-03-25T07:33:44;99732.28;;;11.29;76.29
67015;BME280;1033;52.560;13.374;2023-03-25T07:36:14;99717.91;;;11.40;76.09
67015;BME280;1033;52.560;13.374;2023-03-25T07:38:44;99719.81;;;11.51;74.88
67015;BME280;1033;52.560;13.374;2023-03-25T07:41:36;99719.44;;;11.59;73.52
67015;BME280;1033;52.560;13.374;2023-03-25T07:51:12;99727.16;;;12.14;69.25
67015;BME280;1033;52.560;13.374;2023-03-25T07:53:52;99734.78;;;12.17;69.32
67015;BME280;1033;52.560;13.374;2023-03-25T08:00:20;99724.91;;;12.11;68.57
67015;BME280;1033;52.560;13.374;2023-03-25T08:03:11;99723.44;;;12.20;68.13
67015;BME280;1033;52.560;13.374;2023-03-25T08:05:49;99725.38;;;12.08;67.00
67015;BME280;1033;52.560;13.374;2023-03-25T08:08:31;99731.13;;;12.23;66.98
67015;BME280;1033;52.560;13.374;2023-03-25T08:11:06;99728.41;;;12.23;65.69
67015;BME280;1033;52.560;13.374;2023-03-25T08:13:36;99716.97;;;12.49;65.35
67015;BME280;1033;52.560;13.374;2023-03-25T08:16:25;99732.56;;;12.71;65.28
67015;BME280;1033;52.560;13.374;2023-03-25T08:18:54;99724.22;;;12.60;64.42
67015;BME280;1033;52.560;13.374;2023-03-25T08:21:23;99726.84;;;12.55;65.38
67015;BME280;1033;52.560;13.374;2023-03-25T08:23:55;99724.16;;;12.27;65.99
67015;BME280;1033;52.560;13.374;2023-03-25T08:26:31;99726.47;;;12.35;65.30
67015;BME280;1033;52.560;13.374;2023-03-25T08:29:09;99727.59;;;12.51;64.70
67015;BME280;1033;52.560;13.374;2023-03-25T08:31:43;99719.56;;;12.16;64.26
67015;BME280;1033;52.560;13.374;2023-03-25T08:34:25;99728.59;;;12.05;65.70
67015;BME280;1033;52.560;13.374;2023-03-25T08:36:56;99731.59;;;12.20;65.63
67015;BME280;1033;52.560;13.374;2023-03-25T08:39:26;99728.19;;;12.13;66.25
67015;BME280;1033;52.560;13.374;2023-03-25T08:41:56;99730.50;;;11.93;66.06
67015;BME280;1033;52.560;13.374;2023-03-25T08:44:30;99730.50;;;11.93;66.32
67015;BME280;1033;52.560;13.374;2023-03-25T08:47:07;99723.81;;;12.24;66.79
67015;BME280;1033;52.560;13.374;2023-03-25T08:49:45;99723.22;;;12.50;64.37
67015;BME280;1033;52.560;13.374;2023-03-25T08:52:17;99730.50;;;12.61;63.00
67015;BME280;1033;52.560;13.374;2023-03-25T08:54:48;99724.31;;;12.66;62.53
67015;BME280;1033;52.560;13.374;2023-03-25T08:57:18;99731.19;;;12.85;61.84
67015;BME280;1033;52.560;13.374;2023-03-25T08:59:48;99710.94;;;12.76;61.31
67015;BME280;1033;52.560;13.374;2023-03-25T09:02:26;99719.09;;;12.76;61.53
67015;BME280;1033;52.560;13.374;2023-03-25T09:05:48;99727.19;;;12.59;61.24
67015;BME280;1033;52.560;13.374;2023-03-25T09:08:48;99718.94;;;12.54;61.21
67015;BME280;1033;52.560;13.374;2023-03-25T09:11:19;99721.97;;;12.86;60.91
67015;BME280;1033;52.560;13.374;2023-03-25T09:14:03;99712.41;;;12.83;60.21
67015;BME280;1033;52.560;13.374;2023-03-25T09:16:34;99718.19;;;13.03;60.50
67015;BME280;1033;52.560;13.374;2023-03-25T09:19:06;99726.72;;;12.62;60.67
67015;BME280;1033;52.560;13.374;2023-03-25T09:21:37;99722.94;;;12.63;61.24
67015;BME280;1033;52.560;13.374;2023-03-25T09:24:08;99719.97;;;12.64;62.27
67015;BME280;1033;52.560;13.374;2023-03-25T09:26:38;99729.56;;;12.27;64.66
67015;BME280;1033;52.560;13.374;2023-03-25T09:29:08;99738.94;;;12.08;65.26
67015;BME280;1033;52.560;13.374;2023-03-25T09:31:43;99746.75;;;11.58;65.81
67015;BME280;1033;52.560;13.374;2023-03-25T09:34:15;99742.41;;;11.22;71.53
67015;BME280;1033;52.560;13.374;2023-03-25T09:36:46;99737.63;;;10.94;72.46
67015;BME280;1033;52.560;13.374;2023-03-25T09:39:16;99743.97;;;10.76;75.04
67015;BME280;1033;52.560;13.374;2023-03-25T09:42:03;99736.97;;;10.99;76.69
67015;BME280;1033;52.560;13.374;2023-03-25T09:44:52;99743.66;;;10.96;76.90
67015;BME280;1033;52.560;13.374;2023-03-25T09:47:31;99736.75;;;11.12;76.48
67015;BME280;1033;52.560;13.374;2023-03-25T09:50:09;99740.50;;;11.34;75.04
67015;BME280;1033;52.560;13.374;2023-03-25T09:52:53;99732.84;;;11.43;74.02
67015;BME280;1033;52.560;13.374;2023-03-25T09:55:31;99738.19;;;11.72;73.45
67015;BME280;1033;52.560;13.374;2023-03-25T09:58:26;99738.84;;;12.03;70.72
67015;BME280;1033;52.560;13.374;2023-03-25T10:01:02;99734.38;;;12.37;69.81
67015;BME280;1033;52.560;13.374;2023-03-25T10:03:40;99736.97;;;12.32;66.33
67015;BME280;1033;52.560;13.374;2023-03-25T10:06:19;99739.06;;;12.70;65.56
67015;BME280;1033;52.560;13.374;2023-03-25T10:12:21;99730.16;;;12.29;63.85
67015;BME280;1033;52.560;13.374;2023-03-25T10:15:07;99730.53;;;12.49;62.80
67015;BME280;1033;52.560;13.374;2023-03-25T10:17:47;99734.94;;;12.67;61.62
67015;BME280;1033;52.560;13.374;2023-03-25T10:20:34;99736.75;;;12.61;62.43
67015;BME280;1033;52.560;13.374;2023-03-25T10:23:14;99735.31;;;12.59;61.44
67015;BME280;1033;52.560;13.374;2023-03-25T10:25:53;99724.41;;;12.71;62.24
67015;BME280;1033;52.560;13.374;2023-03-25T10:28:29;99729.28;;;13.30;60.35
67015;BME280;1033;52.560;13.374;2023-03-25T10:31:02;99723.66;;;13.37;58.80
67015;BME280;1033;52.560;13.374;2023-03-25T10:33:36;99718.97;;;13.32;58.79
67015;BME280;1033;52.560;13.374;2023-03-25T10:36:11;99722.81;;;13.36;56.88
67015;BME280;1033;52.560;13.374;2023-03-25T10:38:47;99710.19;;;13.64;57.60
67015;BME280;1033;52.560;13.374;2023-03-25T10:41:23;99721.22;;;13.96;56.34
67015;BME280;1033;52.560;13.374;2023-03-25T10:43:54;99719.13;;;14.24;56.01
67015;BME280;1033;52.560;13.374;2023-03-25T10:46:28;99717.53;;;13.85;54.57
67015;BME280;1033;52.560;13.374;2023-03-25T10:48:59;99706.84;;;14.44;55.05
67015;BME280;1033;52.560;13.374;2023-03-25T10:51:30;99709.97;;;14.52;53.51
67015;BME280;1033;52.560;13.374;2023-03-25T10:54:02;99702.63;;;15.16;52.85
67015;BME280;1033;52.560;13.374;2023-03-25T10:56:35;99719.44;;;15.45;52.30
67015;BME280;1033;52.560;13.374;2023-03-25T10:59:12;99713.72;;;15.05;52.76
67015;BME280;1033;52.560;13.374;2023-03-25T11:01:45;99706.44;;;14.84;52.67
67015;BME280;1033;52.560;13.374;2023-03-25T11:04:18;99711.31;;;14.82;52.18
67015;BME280;1033;52.560;13.374;2023-03-25T11:06:52;99711.06;;;14.83;51.85
67015;BME280;1033;52.560;13.374;2023-03-25T11:09:27;99707.13;;;14.69;52.67
67015;BME280;1033;52.560;13.374;2023-03-25T11:12:00;99708.63;;;14.11;53.74
67015;BME280;1033;52.560;13.374;2023-03-25T11:14:37;99704.72;;;14.02;54.30
67015;BME280;1033;52.560;13.374;2023-03-25T11:17:14;99719.13;;;14.03;54.03
67015;BME280;1033;52.560;13.374;2023-03-25T11:19:49;99702.88;;;13.47;54.94
67015;BME280;1033;52.560;13.374;2023-03-25T11:22:23;99696.47;;;13.54;55.60
67015;BME280;1033;52.560;13.374;2023-03-25T11:25:00;99703.25;;;13.34;55.80
67015;BME280;1033;52.560;13.374;2023-03-25T11:27:40;99712.94;;;12.97;57.63
67015;BME280;1033;52.560;13.374;2023-03-25T11:30:17;99755.66;;;10.88;72.97
67015;BME280;1033;52.560;13.374;2023-03-25T11:32:56;99736.72;;;9.38;77.97
67015;BME280;1033;52.560;13.374;2023-03-25T11:35:29;99743.59;;;8.84;87.49
67015;BME280;1033;52.560;13.374;2023-03-25T11:38:12;99712.78;;;8.67;91.09
67015;BME280;1033;52.560;13.374;2023-03-25T11:40:53;99709.91;;;8.93;91.88
67015;BME280;1033;52.560;13.374;2023-03-25T11:43:25;99701.00;;;9.36;92.04
67015;BME280;1033;52.560;13.374;2023-03-25T11:45:55;99708.16;;;9.67;90.72
67015;BME280;1033;52.560;13.374;2023-03-25T11:48:30;99707.41;;;9.96;92.25
67015;BME280;1033;52.560;13.374;2023-03-25T11:51:11;99702.56;;;9.98;87.70
67015;BME280;1033;52.560;13.374;2023-03-25T11:53:45;99690.63;;;10.24;89.57
67015;BME280;1033;52.560;13.374;2023-03-25T11:56:20;99683.81;;;10.63;86.34
67015;BME280;1033;52.560;13.374;2023-03-25T11:58:51;99680.44;;;10.90;87.59
67015;BME280;1033;52.560;13.374;2023-03-25T12:01:28;99675.41;;;11.29;87.88
67015;BME280;1033;52.560;13.374;2023-03-25T12:04:13;99675.78;;;11.32;83.21
67015;BME280;1033;52.560;13.374;2023-03-25T12:06:54;99668.13;;;11.93;85.76
67015;BME280;1033;52.560;13.374;2023-03-25T12:09:26;99666.31;;;12.10;80.66
67015;BME280;1033;52.560;13.374;2023-03-25T12:12:15;99663.34;;;12.40;82.53
67015;BME280;1033;52.560;13.374;2023-03-25T12:14:57;99652.19;;;12.53;79.72
67015;BME280;1033;52.560;13.374;2023-03-25T12:17:44;99649.63;;;12.46;78.59
67015;BME280;1033;52.560;13.374;2023-03-25T12:20:24;99647.22;;;12.33;77.70
67015;BME280;1033;52.560;13.374;2023-03-25T12:23:02;99645.50;;;11.99;71.89
67015;BME280;1033;52.560;13.374;2023-03-25T12:25:43;99648.50;;;11.86;70.13
67015;BME280;1033;52.560;13.374;2023-03-25T12:28:36;99652.50;;;11.83;68.93
67015;BME280;1033;52.560;13.374;2023-03-25T12:31:21;99642.34;;;11.90;67.76
67015;BME280;1033;52.560;13.374;2023-03-25T12:34:02;99637.97;;;12.17;65.45
67015;BME280;1033;52.560;13.374;2023-03-25T12:36:42;99640.03;;;12.55;65.57
67015;BME280;1033;52.560;13.374;2023-03-25T12:39:37;99639.69;;;12.69;63.54
67015;BME280;1033;52.560;13.374;2023-03-25T12:42:21;99640.53;;;12.86;61.89
67015;BME280;1033;52.560;13.374;2023-03-25T12:45:05;99635.53;;;12.78;61.58
67015;BME280;1033;52.560;13.374;2023-03-25T12:47:48;99634.50;;;12.84;59.37
67015;BME280;1033;52.560;13.374;2023-03-25T12:50:42;99639.38;;;12.82;60.55
67015;BME280;1033;52.560;13.374;2023-03-25T12:53:41;99638.56;;;13.15;60.45
67015;BME280;1033;52.560;13.374;2023-03-25T12:56:23;99634.09;;;13.25;60.96
67015;BME280;1033;52.560;13.374;2023-03-25T12:59:22;99635.88;;;13.36;59.45
67015;BME280;1033;52.560;13.374;2023-03-25T13:02:08;99625.03;;;13.03;58.94
67015;BME280;1033;52.560;13.374;2023-03-25T13:05:01;99638.56;;;12.81;60.42
67015;BME280;1033;52.560;13.374;2023-03-25T13:07:36;99630.00;;;12.73;60.97
67015;BME280;1033;52.560;13.374;2023-03-25T13:10:13;99638.03;;;12.51;60.89
67015;BME280;1033;52.560;13.374;2023-03-25T13:12:48;99648.88;;;12.34;62.96
67015;BME280;1033;52.560;13.374;2023-03-25T13:15:24;99681.91;;;12.03;64.32
67015;BME280;1033;52.560;13.374;2023-03-25T13:18:00;99674.59;;;10.52;77.81
67015;BME280;1033;52.560;13.374;2023-03-25T13:20:37;99669.16;;;10.11;79.71
67015;BME280;1033;52.560;13.374;2023-03-25T13:23:13;99659.38;;;10.28;79.02
67015;BME280;1033;52.560;13.374;2023-03-25T13:25:49;99656.06;;;10.67;80.10
67015;BME280;1033;52.560;13.374;2023-03-25T13:28:22;99647.28;;;10.83;79.27
67015;BME280;1033;52.560;13.374;2023-03-25T13:30:56;99642.81;;;10.89;79.71
67015;BME280;1033;52.560;13.374;2023-03-25T13:33:33;99647.72;;;10.80;81.76
67015;BME280;1033;52.560;13.374;2023-03-25T13:36:12;99656.66;;;10.69;82.16
67015;BME280;1033;52.560;13.374;2023-03-25T13:38:47;99656.88;;;10.68;82.52
67015;BME280;1033;52.560;13.374;2023-03-25T13:41:21;99655.00;;;10.68;82.40
67015;BME280;1033;52.560;13.374;2023-03-25T13:44:00;99651.25;;;10.69;82.33
67015;BME280;1033;52.560;13.374;2023-03-25T13:46:35;99652.53;;;10.67;80.51
67015;BME280;1033;52.560;13.374;2023-03-25T13:49:15;99656.31;;;10.77;80.61
67015;BME280;1033;52.560;13.374;2023-03-25T13:51:47;99664.44;;;10.77;80.70
67015;BME280;1033;52.560;13.374;2023-03-25T13:54:19;99637.50;;;10.94;79.88
67015;BME280;1033;52.560;13.374;2023-03-25T13:57:18;99636.69;;;11.17;80.18
67015;BME280;1033;52.560;13.374;2023-03-25T14:00:22;99641.03;;;11.18;79.66
67015;BME280;1033;52.560;13.374;2023-03-25T14:03:30;99632.66;;;11.31;77.76
67015;BME280;1033;52.560;13.374;2023-03-25T14:06:25;99629.59;;;11.39;75.36
67015;BME280;1033;52.560;13.374;2023-03-25T14:12:10;99644.19;;;11.38;73.49
67015;BME280;1033;52.560;13.374;2023-03-25T14:14:47;99639.38;;;11.28;74.94
67015;BME280;1033;52.560;13.374;2023-03-25T14:17:19;99657.25;;;11.29;74.72
67015;BME280;1033;52.560;13.374;2023-03-25T14:19:52;99647.03;;;11.20;74.52
67015;BME280;1033;52.560;13.374;2023-03-25T14:22:27;99641.63;;;11.20;74.84
67015;BME280;1033;52.560;13.374;2023-03-25T14:25:00;99645.63;;;11.17;74.81
67015;BME280;1033;52.560;13.374;2023-03-25T14:27:31;99641.25;;;11.40;75.62
67015;BME280;1033;52.560;13.374;2023-03-25T14:30:04;99638.63;;;11.56;73.87
67015;BME280;1033;52.560;13.374;2023-03-25T14:32:37;99630.47;;;11.80;73.20
67015;BME280;1033;52.560;13.374;2023-03-25T14:38:52;99615.66;;;12.27;70.20
67015;BME280;1033;52.560;13.374;2023-03-25T14:41:57;99612.88;;;11.94;69.71
67015;BME280;1033;52.560;13.374;2023-03-25T14:44:28;99621.28;;;12.09;69.76